GMMN Airport Information

Runway Information
Runway 17L Length 12205 ft width 148 ft
Elevation 633 ft Threshold 0 ft Heading 164
Runway 35R Length 12205 ft Width 148 ft
Elevation 656 ft Threshold 0 ft Heading 344
Runway 17R Length 12205 ft width 148 ft
Elevation 636 ft Threshold 0 ft Heading 164
Runway 35L Length 12205 ft Width 148 ft
Elevation 656 ft Threshold 0 ft Heading 344
Airport Frequencies
Type APP Name APP Frequency 121.3 MHZ
Type ATIS Name ATIS Frequency 126.4 MHZ
Type TWR Name TWR Frequency 118.5 MHZ
Airport Navaids
Type VOR-DME Name Casablanca Frequency 114000 KHZ
Airport Weather Information & NOTAM
ADDS - METARS form results

(0238 UTC 14 April 2021)
Data provider http://aviationweather.gov/metar/data/
 
METAR text: GMMN 140230Z VRB03KT 9999 SCT004 BKN100 17/15 Q1014 NOSIG
Conditions at: GMMN (NOUASSEUR/CASABL, MA) observed 0230 UTC 14 April 2021
Temperature: 17.0°C (63°F)
Dewpoint: 15.0°C (59°F) [RH = 88%]
Pressure (altimeter): 29.94 inches Hg (1014.0 mb)
Winds: variable direction winds at 3 MPH (3 knots; 1.5 m/s)
Visibility: 6 or more miles (10+ km)
Ceiling: 10000 feet AGL
Clouds: scattered clouds at 400 feet AGL
broken clouds at 10000 feet AGL
Weather: no significant weather observed at this time

METAR text: GMMN 140200Z 35005KT 260V040 9999 SCT004 BKN100 16/15 Q1013 NOSIG
Conditions at: GMMN (NOUASSEUR/CASABL, MA) observed 0200 UTC 14 April 2021
Temperature: 16.0°C (61°F)
Dewpoint: 15.0°C (59°F) [RH = 94%]
Pressure (altimeter): 29.91 inches Hg (1013.0 mb)
Winds: from the N (350 degrees) at 6 MPH (5 knots; 2.6 m/s)
Visibility: 6 or more miles (10+ km)
Ceiling: 10000 feet AGL
Clouds: scattered clouds at 400 feet AGL
broken clouds at 10000 feet AGL
Weather: no significant weather observed at this time

Forecast for: GMMN (NOUASSEUR/CASABL, MA)
Text: TAF GMMN 132300Z 1400/1506 32006KT 9999 SCT016 BKN100
Forecast period: 0000 UTC 14 April 2021 to 0600 UTC 15 April 2021
Forecast type: FROM: standard forecast or significant change
Winds: from the NW (320 degrees) at 7 MPH (6 knots; 3.1 m/s)
Visibility: 6 or more miles (10+ km)
Ceiling: 10000 feet AGL
Clouds: scattered clouds at 1600 feet AGL
broken clouds at 10000 feet AGL
Weather: no significant weather forecast for this period
Text: TEMPO 1402/1424 34012G24KT 4000 RA BKN020 FEW026TCU
Forecast period: 0200 UTC 14 April 2021 to 0000 UTC 15 April 2021
Forecast type: TEMPORARY: The following changes expected for less than half the time period
Winds: from the NNW (340 degrees) at 14 MPH (12 knots; 6.2 m/s)
gusting to 28 MPH (24 knots; 12.3 m/s)
Visibility: 2.49 miles (4.01 km)
Ceiling: 2000 feet AGL
Clouds: broken clouds at 2000 feet AGL
few clouds at 2600 feet AGL
Weather: RA  (moderate rain)